sensor_id;sensor_type;location;lat;lon;timestamp;pressure;altitude;pressure_sealevel;temperature;humidity
63204;BME280;49297;43.210;27.914;2023-04-02T00:04:20;99920.84;;;10.84;66.46
63204;BME280;49297;43.210;27.914;2023-04-02T00:09:42;99909.22;;;10.77;66.81
63204;BME280;49297;43.210;27.914;2023-04-02T00:12:13;99914.00;;;10.74;67.13
63204;BME280;49297;43.210;27.914;2023-04-02T00:14:40;99912.66;;;10.70;67.19
63204;BME280;49297;43.210;27.914;2023-04-02T00:17:10;99911.31;;;10.65;67.39
63204;BME280;49297;43.210;27.914;2023-04-02T00:19:52;99917.75;;;10.63;67.46
63204;BME280;49297;43.210;27.914;2023-04-02T00:22:23;99912.09;;;10.58;67.61
63204;BME280;49297;43.210;27.914;2023-04-02T00:24:51;99912.03;;;10.50;67.77
63204;BME280;49297;43.210;27.914;2023-04-02T00:27:17;99915.03;;;10.46;67.50
63204;BME280;49297;43.210;27.914;2023-04-02T00:29:46;99920.75;;;10.42;68.22
63204;BME280;49297;43.210;27.914;2023-04-02T00:32:25;99930.53;;;10.41;68.02
63204;BME280;49297;43.210;27.914;2023-04-02T00:34:53;99927.38;;;10.38;68.04
63204;BME280;49297;43.210;27.914;2023-04-02T00:37:20;99928.50;;;10.35;68.68
63204;BME280;49297;43.210;27.914;2023-04-02T00:40:04;99933.13;;;10.33;68.80
63204;BME280;49297;43.210;27.914;2023-04-02T00:42:33;99932.44;;;10.31;68.16
63204;BME280;49297;43.210;27.914;2023-04-02T00:45:00;99935.50;;;10.26;68.19
63204;BME280;49297;43.210;27.914;2023-04-02T00:47:32;99932.19;;;10.24;68.19
63204;BME280;49297;43.210;27.914;2023-04-02T00:52:36;99934.84;;;10.24;67.81
63204;BME280;49297;43.210;27.914;2023-04-02T00:55:07;99925.91;;;10.25;67.88
63204;BME280;49297;43.210;27.914;2023-04-02T00:57:40;99929.69;;;10.23;67.44
63204;BME280;49297;43.210;27.914;2023-04-02T01:00:19;99927.38;;;10.20;67.29
63204;BME280;49297;43.210;27.914;2023-04-02T01:05:33;99930.16;;;10.18;67.31
63204;BME280;49297;43.210;27.914;2023-04-02T01:08:04;99938.09;;;10.18;67.31
63204;BME280;49297;43.210;27.914;2023-04-02T01:10:40;99933.94;;;10.16;67.37
63204;BME280;49297;43.210;27.914;2023-04-02T01:13:29;99934.41;;;10.11;67.16
63204;BME280;49297;43.210;27.914;2023-04-02T01:16:03;99925.81;;;10.09;67.36
63204;BME280;49297;43.210;27.914;2023-04-02T01:23:48;99931.69;;;10.03;67.77
63204;BME280;49297;43.210;27.914;2023-04-02T01:26:31;99926.56;;;10.01;68.25
63204;BME280;49297;43.210;27.914;2023-04-02T01:29:00;99917.28;;;9.97;67.97
63204;BME280;49297;43.210;27.914;2023-04-02T01:31:27;99928.81;;;9.96;68.57
63204;BME280;49297;43.210;27.914;2023-04-02T01:33:54;99929.31;;;9.91;67.88
63204;BME280;49297;43.210;27.914;2023-04-02T01:39:06;99929.59;;;9.88;67.90
63204;BME280;49297;43.210;27.914;2023-04-02T01:41:55;99932.91;;;9.90;68.32
63204;BME280;49297;43.210;27.914;2023-04-02T01:45:07;99933.75;;;9.91;67.94
63204;BME280;49297;43.210;27.914;2023-04-02T01:47:14;99934.06;;;9.88;67.43
63204;BME280;49297;43.210;27.914;2023-04-02T01:49:41;99927.41;;;9.84;67.48
63204;BME280;49297;43.210;27.914;2023-04-02T01:52:07;99924.06;;;9.82;68.34
63204;BME280;49297;43.210;27.914;2023-04-02T01:54:33;99923.94;;;9.83;67.48
63204;BME280;49297;43.210;27.914;2023-04-02T01:57:02;99918.50;;;9.85;67.33
63204;BME280;49297;43.210;27.914;2023-04-02T01:59:29;99924.47;;;9.87;67.85
63204;BME280;49297;43.210;27.914;2023-04-02T02:02:03;99911.38;;;9.85;67.58
63204;BME280;49297;43.210;27.914;2023-04-02T02:04:29;99916.53;;;9.87;67.53
63204;BME280;49297;43.210;27.914;2023-04-02T02:06:57;99919.16;;;9.87;67.79
63204;BME280;49297;43.210;27.914;2023-04-02T02:09:28;99922.47;;;9.89;67.74
63204;BME280;49297;43.210;27.914;2023-04-02T02:11:58;99918.19;;;9.88;68.31
63204;BME280;49297;43.210;27.914;2023-04-02T02:14:25;99909.13;;;9.90;68.58
63204;BME280;49297;43.210;27.914;2023-04-02T02:16:55;99912.63;;;9.91;68.30
63204;BME280;49297;43.210;27.914;2023-04-02T02:19:26;99920.38;;;9.93;68.02
63204;BME280;49297;43.210;27.914;2023-04-02T02:21:53;99923.53;;;9.96;67.88
63204;BME280;49297;43.210;27.914;2023-04-02T02:24:27;99916.47;;;9.97;67.76
63204;BME280;49297;43.210;27.914;2023-04-02T02:29:27;99915.81;;;10.03;67.38
63204;BME280;49297;43.210;27.914;2023-04-02T02:31:55;99908.56;;;10.05;67.88
63204;BME280;49297;43.210;27.914;2023-04-02T02:34:24;99916.50;;;10.05;67.55
63204;BME280;49297;43.210;27.914;2023-04-02T02:37:05;99921.50;;;10.08;67.51
63204;BME280;49297;43.210;27.914;2023-04-02T02:39:46;99924.97;;;10.08;67.11
63204;BME280;49297;43.210;27.914;2023-04-02T02:44:48;99935.25;;;10.12;66.82
63204;BME280;49297;43.210;27.914;2023-04-02T02:47:29;99939.38;;;10.14;67.00
63204;BME280;49297;43.210;27.914;2023-04-02T02:49:56;99936.06;;;10.12;66.74
63204;BME280;49297;43.210;27.914;2023-04-02T02:52:30;99936.72;;;10.14;66.80
63204;BME280;49297;43.210;27.914;2023-04-02T02:54:58;99940.38;;;10.13;67.43
63204;BME280;49297;43.210;27.914;2023-04-02T02:57:26;99942.72;;;10.16;66.56
63204;BME280;49297;43.210;27.914;2023-04-02T02:59:56;99939.06;;;10.17;66.72
63204;BME280;49297;43.210;27.914;2023-04-02T03:02:23;99950.47;;;10.18;66.80
63204;BME280;49297;43.210;27.914;2023-04-02T03:04:52;99941.56;;;10.19;66.65
63204;BME280;49297;43.210;27.914;2023-04-02T03:07:22;99948.84;;;10.17;66.56
63204;BME280;49297;43.210;27.914;2023-04-02T03:09:54;99955.09;;;10.16;66.90
63204;BME280;49297;43.210;27.914;2023-04-02T03:23:02;99970.81;;;10.17;67.58
63204;BME280;49297;43.210;27.914;2023-04-02T03:25:38;99979.44;;;10.19;67.30
63204;BME280;49297;43.210;27.914;2023-04-02T03:28:11;99972.34;;;10.20;66.85
63204;BME280;49297;43.210;27.914;2023-04-02T03:33:23;99982.44;;;10.24;67.14
63204;BME280;49297;43.210;27.914;2023-04-02T03:36:04;99979.50;;;10.27;66.72
63204;BME280;49297;43.210;27.914;2023-04-02T03:41:30;99974.38;;;10.26;66.36
63204;BME280;49297;43.210;27.914;2023-04-02T03:43:59;99960.31;;;10.25;66.33
63204;BME280;49297;43.210;27.914;2023-04-02T03:46:29;99961.97;;;10.26;66.87
63204;BME280;49297;43.210;27.914;2023-04-02T03:49:05;99956.53;;;10.28;66.80
63204;BME280;49297;43.210;27.914;2023-04-02T03:51:43;99959.16;;;10.28;66.86
63204;BME280;49297;43.210;27.914;2023-04-02T03:54:13;99960.16;;;10.27;66.38
63204;BME280;49297;43.210;27.914;2023-04-02T03:56:41;99961.81;;;10.28;66.44
63204;BME280;49297;43.210;27.914;2023-04-02T03:59:24;99967.09;;;10.28;66.41
63204;BME280;49297;43.210;27.914;2023-04-02T04:01:55;99973.25;;;10.28;66.97
63204;BME280;49297;43.210;27.914;2023-04-02T04:04:24;99976.56;;;10.31;66.91
63204;BME280;49297;43.210;27.914;2023-04-02T04:06:51;99976.56;;;10.31;66.69
63204;BME280;49297;43.210;27.914;2023-04-02T04:09:34;99984.38;;;10.32;66.69
63204;BME280;49297;43.210;27.914;2023-04-02T04:15:03;99993.81;;;10.35;66.69
63204;BME280;49297;43.210;27.914;2023-04-02T04:23:18;100007.56;;;10.38;66.70
63204;BME280;49297;43.210;27.914;2023-04-02T04:26:01;100005.28;;;10.43;66.91
63204;BME280;49297;43.210;27.914;2023-04-02T04:31:26;100023.72;;;10.53;66.58
63204;BME280;49297;43.210;27.914;2023-04-02T04:33:59;100025.63;;;10.61;66.62
63204;BME280;49297;43.210;27.914;2023-04-02T04:36:32;100027.94;;;10.64;65.90
63204;BME280;49297;43.210;27.914;2023-04-02T04:38:59;100023.00;;;10.69;66.37
63204;BME280;49297;43.210;27.914;2023-04-02T04:41:33;100027.03;;;10.73;66.05
63204;BME280;49297;43.210;27.914;2023-04-02T04:49:21;100026.91;;;10.83;65.89
63204;BME280;49297;43.210;27.914;2023-04-02T04:51:55;100027.56;;;10.85;66.01
63204;BME280;49297;43.210;27.914;2023-04-02T04:54:24;100030.06;;;10.86;65.68
63204;BME280;49297;43.210;27.914;2023-04-02T04:56:52;100027.78;;;10.92;65.90
63204;BME280;49297;43.210;27.914;2023-04-02T05:04:37;100031.69;;;11.05;65.45
63204;BME280;49297;43.210;27.914;2023-04-02T05:09:35;100039.66;;;11.14;65.26
63204;BME280;49297;43.210;27.914;2023-04-02T05:17:17;100053.84;;;11.31;65.14
63204;BME280;49297;43.210;27.914;2023-04-02T05:19:59;100061.34;;;11.43;64.83
63204;BME280;49297;43.210;27.914;2023-04-02T05:22:43;100063.53;;;11.56;64.78
63204;BME280;49297;43.210;27.914;2023-04-02T05:25:28;100065.75;;;11.69;64.57
63204;BME280;49297;43.210;27.914;2023-04-02T05:30:46;100064.63;;;11.80;64.20
63204;BME280;49297;43.210;27.914;2023-04-02T05:35:40;100064.72;;;12.05;62.95
63204;BME280;49297;43.210;27.914;2023-04-02T05:38:12;100079.31;;;12.17;62.83
63204;BME280;49297;43.210;27.914;2023-04-02T05:40:42;100073.03;;;12.26;62.46
63204;BME280;49297;43.210;27.914;2023-04-02T05:43:09;100073.06;;;12.34;62.04
63204;BME280;49297;43.210;27.914;2023-04-02T05:45:39;100066.09;;;12.42;62.24
63204;BME280;49297;43.210;27.914;2023-04-02T05:48:15;100060.63;;;12.51;61.86
63204;BME280;49297;43.210;27.914;2023-04-02T05:50:43;100070.72;;;12.56;61.98
63204;BME280;49297;43.210;27.914;2023-04-02T05:53:44;100061.78;;;12.57;61.85
63204;BME280;49297;43.210;27.914;2023-04-02T05:56:16;100063.94;;;12.53;61.87
63204;BME280;49297;43.210;27.914;2023-04-02T05:59:03;100063.78;;;12.55;61.98
63204;BME280;49297;43.210;27.914;2023-04-02T06:14:40;100081.69;;;12.53;60.92
63204;BME280;49297;43.210;27.914;2023-04-02T06:17:07;100078.38;;;12.59;61.11
63204;BME280;49297;43.210;27.914;2023-04-02T06:19:36;100094.66;;;12.64;60.82
63204;BME280;49297;43.210;27.914;2023-04-02T06:22:36;100090.50;;;12.78;60.64
63204;BME280;49297;43.210;27.914;2023-04-02T06:24:57;100083.97;;;12.97;60.23
63204;BME280;49297;43.210;27.914;2023-04-02T06:27:25;100092.28;;;13.02;59.54
63204;BME280;49297;43.210;27.914;2023-04-02T06:29:54;100092.13;;;13.04;59.81
63204;BME280;49297;43.210;27.914;2023-04-02T06:32:22;100090.44;;;13.19;59.27
63204;BME280;49297;43.210;27.914;2023-04-02T06:34:51;100094.41;;;13.23;59.03
63204;BME280;49297;43.210;27.914;2023-04-02T06:37:34;100098.22;;;13.29;58.49
63204;BME280;49297;43.210;27.914;2023-04-02T06:40:02;100097.22;;;13.38;58.87
63204;BME280;49297;43.210;27.914;2023-04-02T06:42:30;100107.31;;;13.51;59.00
63204;BME280;49297;43.210;27.914;2023-04-02T06:44:58;100107.13;;;13.61;58.24
63204;BME280;49297;43.210;27.914;2023-04-02T06:52:28;100103.25;;;13.71;57.28
63204;BME280;49297;43.210;27.914;2023-04-02T06:54:55;100097.28;;;13.69;57.53
63204;BME280;49297;43.210;27.914;2023-04-02T06:57:21;100095.09;;;13.73;57.14
63204;BME280;49297;43.210;27.914;2023-04-02T06:59:47;100106.38;;;13.75;57.27
63204;BME280;49297;43.210;27.914;2023-04-02T07:04:41;100101.25;;;13.74;57.39
63204;BME280;49297;43.210;27.914;2023-04-02T07:07:09;100100.28;;;13.66;57.56
63204;BME280;49297;43.210;27.914;2023-04-02T07:09:36;100101.28;;;13.65;57.78
63204;BME280;49297;43.210;27.914;2023-04-02T07:12:09;100113.09;;;13.63;57.88
63204;BME280;49297;43.210;27.914;2023-04-02T07:14:35;100113.25;;;13.61;57.78
63204;BME280;49297;43.210;27.914;2023-04-02T07:17:02;100107.28;;;13.59;57.91
63204;BME280;49297;43.210;27.914;2023-04-02T07:19:29;100109.63;;;13.54;58.23
63204;BME280;49297;43.210;27.914;2023-04-02T07:21:54;100104.97;;;13.56;58.23
63204;BME280;49297;43.210;27.914;2023-04-02T07:24:23;100115.44;;;13.58;58.52
63204;BME280;49297;43.210;27.914;2023-04-02T07:26:48;100115.25;;;13.59;57.96
63204;BME280;49297;43.210;27.914;2023-04-02T07:29:14;100121.09;;;13.55;57.44
63204;BME280;49297;43.210;27.914;2023-04-02T07:31:42;100125.75;;;13.52;57.62
63204;BME280;49297;43.210;27.914;2023-04-02T07:34:10;100127.25;;;13.55;57.28
63204;BME280;49297;43.210;27.914;2023-04-02T07:36:38;100140.06;;;13.51;57.55
63204;BME280;49297;43.210;27.914;2023-04-02T07:39:04;100128.56;;;13.51;57.02
63204;BME280;49297;43.210;27.914;2023-04-02T07:41:30;100132.75;;;13.54;57.37
63204;BME280;49297;43.210;27.914;2023-04-02T07:43:56;100130.06;;;13.62;57.24
63204;BME280;49297;43.210;27.914;2023-04-02T07:46:24;100137.50;;;13.66;57.05
63204;BME280;49297;43.210;27.914;2023-04-02T07:48:50;100151.50;;;13.60;57.18
63204;BME280;49297;43.210;27.914;2023-04-02T07:51:17;100143.69;;;13.59;57.81
63204;BME280;49297;43.210;27.914;2023-04-02T07:53:43;100152.00;;;13.56;57.71
63204;BME280;49297;43.210;27.914;2023-04-02T07:56:12;100165.81;;;13.51;58.08
63204;BME280;49297;43.210;27.914;2023-04-02T07:58:38;100165.69;;;13.36;57.91
63204;BME280;49297;43.210;27.914;2023-04-02T08:01:10;100159.84;;;13.24;58.61
63204;BME280;49297;43.210;27.914;2023-04-02T08:03:38;100158.53;;;13.20;58.84
63204;BME280;49297;43.210;27.914;2023-04-02T08:06:04;100167.69;;;13.18;58.76
63204;BME280;49297;43.210;27.914;2023-04-02T08:08:37;100164.66;;;13.21;58.90
63204;BME280;49297;43.210;27.914;2023-04-02T08:11:03;100171.31;;;13.25;58.53
63204;BME280;49297;43.210;27.914;2023-04-02T08:13:30;100168.81;;;13.15;58.83
63204;BME280;49297;43.210;27.914;2023-04-02T08:15:59;100181.78;;;13.18;58.96
63204;BME280;49297;43.210;27.914;2023-04-02T08:18:26;100179.28;;;13.17;58.66
63204;BME280;49297;43.210;27.914;2023-04-02T08:20:52;100174.31;;;13.13;59.26
63204;BME280;49297;43.210;27.914;2023-04-02T08:23:18;100185.44;;;13.17;58.97
63204;BME280;49297;43.210;27.914;2023-04-02T08:25:47;100188.78;;;13.19;58.63
63204;BME280;49297;43.210;27.914;2023-04-02T08:28:12;100187.28;;;13.17;58.28
63204;BME280;49297;43.210;27.914;2023-04-02T08:30:38;100196.91;;;13.18;58.32
63204;BME280;49297;43.210;27.914;2023-04-02T08:33:04;100191.25;;;13.21;58.33
63204;BME280;49297;43.210;27.914;2023-04-02T08:35:32;100191.75;;;13.24;58.41
63204;BME280;49297;43.210;27.914;2023-04-02T08:37:58;100197.91;;;13.33;58.17
63204;BME280;49297;43.210;27.914;2023-04-02T08:40:26;100181.13;;;13.41;57.70
63204;BME280;49297;43.210;27.914;2023-04-02T08:48:13;100187.06;;;13.67;57.38
63204;BME280;49297;43.210;27.914;2023-04-02T08:50:40;100189.03;;;13.74;57.16
63204;BME280;49297;43.210;27.914;2023-04-02T08:53:16;100188.00;;;13.83;57.00
63204;BME280;49297;43.210;27.914;2023-04-02T08:58:54;100205.09;;;13.88;56.85
63204;BME280;49297;43.210;27.914;2023-04-02T09:03:48;100204.59;;;14.01;56.37
63204;BME280;49297;43.210;27.914;2023-04-02T09:06:20;100207.06;;;14.03;56.79
63204;BME280;49297;43.210;27.914;2023-04-02T09:08:47;100208.03;;;14.10;56.82
63204;BME280;49297;43.210;27.914;2023-04-02T09:13:42;100205.97;;;14.20;56.24
63204;BME280;49297;43.210;27.914;2023-04-02T09:16:15;100206.63;;;14.22;55.87
63204;BME280;49297;43.210;27.914;2023-04-02T09:18:42;100220.63;;;14.24;55.68
63204;BME280;49297;43.210;27.914;2023-04-02T09:23:49;100224.59;;;14.28;55.41
63204;BME280;49297;43.210;27.914;2023-04-02T09:26:21;100230.72;;;14.29;55.43
63204;BME280;49297;43.210;27.914;2023-04-02T09:28:51;100216.38;;;14.38;55.29
63204;BME280;49297;43.210;27.914;2023-04-02T09:31:33;100223.81;;;14.51;55.05
63204;BME280;49297;43.210;27.914;2023-04-02T09:34:05;100209.59;;;14.67;54.88
63204;BME280;49297;43.210;27.914;2023-04-02T09:36:48;100223.31;;;14.79;55.12
63204;BME280;49297;43.210;27.914;2023-04-02T09:39:18;100226.06;;;14.94;54.68
63204;BME280;49297;43.210;27.914;2023-04-02T09:41:44;100211.03;;;15.01;54.43
63204;BME280;49297;43.210;27.914;2023-04-02T09:44:22;100214.25;;;15.11;54.26
63204;BME280;49297;43.210;27.914;2023-04-02T09:46:59;100225.56;;;15.13;53.31
63204;BME280;49297;43.210;27.914;2023-04-02T09:49:37;100225.94;;;15.10;53.40
63204;BME280;49297;43.210;27.914;2023-04-02T09:52:49;100215.28;;;15.10;53.74
63204;BME280;49297;43.210;27.914;2023-04-02T09:57:36;100214.84;;;15.21;53.08
63204;BME280;49297;43.210;27.914;2023-04-02T10:02:39;100221.34;;;15.42;53.45
63204;BME280;49297;43.210;27.914;2023-04-02T10:05:14;100207.84;;;15.58;52.57
63204;BME280;49297;43.210;27.914;2023-04-02T10:07:44;100203.88;;;15.69;52.62
63204;BME280;49297;43.210;27.914;2023-04-02T10:12:43;100212.19;;;15.89;51.44
63204;BME280;49297;43.210;27.914;2023-04-02T10:15:14;100209.16;;;15.92;51.15
63204;BME280;49297;43.210;27.914;2023-04-02T10:17:42;100214.13;;;15.95;51.14
63204;BME280;49297;43.210;27.914;2023-04-02T10:20:19;100213.56;;;16.00;51.12
63204;BME280;49297;43.210;27.914;2023-04-02T10:22:49;100224.78;;;16.10;51.27
63204;BME280;49297;43.210;27.914;2023-04-02T10:25:18;100225.72;;;16.17;51.09
63204;BME280;49297;43.210;27.914;2023-04-02T10:27:50;100228.75;;;16.14;51.02
63204;BME280;49297;43.210;27.914;2023-04-02T10:43:38;100257.47;;;15.83;52.55
63204;BME280;49297;43.210;27.914;2023-04-02T10:56:49;100271.41;;;15.70;53.43
63204;BME280;49297;43.210;27.914;2023-04-02T10:59:26;100276.53;;;15.79;52.72
63204;BME280;49297;43.210;27.914;2023-04-02T11:01:54;100256.81;;;15.80;52.94
63204;BME280;49297;43.210;27.914;2023-04-02T11:06:54;100257.75;;;15.88;52.34
63204;BME280;49297;43.210;27.914;2023-04-02T11:09:25;100263.38;;;15.93;52.37
63204;BME280;49297;43.210;27.914;2023-04-02T11:11:54;100263.84;;;15.82;52.21
63204;BME280;49297;43.210;27.914;2023-04-02T11:14:22;100257.72;;;15.73;52.30
63204;BME280;49297;43.210;27.914;2023-04-02T11:16:49;100272.44;;;15.69;52.63
63204;BME280;49297;43.210;27.914;2023-04-02T11:29:44;100273.41;;;16.21;51.03
63204;BME280;49297;43.210;27.914;2023-04-02T11:39:54;100261.50;;;16.38;49.23
63204;BME280;49297;43.210;27.914;2023-04-02T11:42:34;100265.75;;;16.32;49.13
63204;BME280;49297;43.210;27.914;2023-04-02T11:45:47;100263.53;;;16.36;48.77
63204;BME280;49297;43.210;27.914;2023-04-02T11:50:44;100270.53;;;16.73;48.30
63204;BME280;49297;43.210;27.914;2023-04-02T11:55:38;100269.13;;;17.85;44.77
63204;BME280;49297;43.210;27.914;2023-04-02T11:58:23;100265.34;;;18.50;43.82
63204;BME280;49297;43.210;27.914;2023-04-02T12:06:33;100269.06;;;20.49;39.38
63204;BME280;49297;43.210;27.914;2023-04-02T12:15:28;100268.22;;;21.57;36.78
63204;BME280;49297;43.210;27.914;2023-04-02T12:18:01;100273.44;;;21.20;37.46
63204;BME280;49297;43.210;27.914;2023-04-02T12:20:29;100267.13;;;20.69;38.23
63204;BME280;49297;43.210;27.914;2023-04-02T12:22:55;100267.16;;;20.04;38.86
63204;BME280;49297;43.210;27.914;2023-04-02T12:25:25;100284.53;;;19.48;40.26
63204;BME280;49297;43.210;27.914;2023-04-02T12:28:11;100273.78;;;19.15;41.32
63204;BME280;49297;43.210;27.914;2023-04-02T12:30:39;100268.41;;;18.95;41.96
63204;BME280;49297;43.210;27.914;2023-04-02T12:35:49;100268.38;;;18.33;42.91
63204;BME280;49297;43.210;27.914;2023-04-02T12:38:19;100273.88;;;18.18;43.57
63204;BME280;49297;43.210;27.914;2023-04-02T12:40:52;100272.16;;;17.82;45.07
63204;BME280;49297;43.210;27.914;2023-04-02T12:43:25;100273.09;;;17.68;45.73
63204;BME280;49297;43.210;27.914;2023-04-02T12:45:54;100280.66;;;17.58;46.93
63204;BME280;49297;43.210;27.914;2023-04-02T12:48:22;100283.59;;;17.41;48.27
63204;BME280;49297;43.210;27.914;2023-04-02T12:50:49;100278.94;;;17.28;49.05
63204;BME280;49297;43.210;27.914;2023-04-02T12:53:49;100282.91;;;17.33;49.02
63204;BME280;49297;43.210;27.914;2023-04-02T12:56:07;100285.00;;;17.16;48.83
63204;BME280;49297;43.210;27.914;2023-04-02T12:58:51;100283.59;;;16.98;49.23
63204;BME280;49297;43.210;27.914;2023-04-02T13:01:19;100291.16;;;16.94;49.49
63204;BME280;49297;43.210;27.914;2023-04-02T13:04:05;100287.22;;;16.90;49.40
63204;BME280;49297;43.210;27.914;2023-04-02T13:06:33;100284.09;;;16.87;49.94
63204;BME280;49297;43.210;27.914;2023-04-02T13:09:00;100293.13;;;16.86;50.07
63204;BME280;49297;43.210;27.914;2023-04-02T13:11:36;100293.50;;;16.83;50.44
63204;BME280;49297;43.210;27.914;2023-04-02T13:14:17;100290.91;;;16.89;50.43
63204;BME280;49297;43.210;27.914;2023-04-02T13:16:44;100280.38;;;17.03;49.63
63204;BME280;49297;43.210;27.914;2023-04-02T13:21:43;100271.09;;;17.48;48.19
63204;BME280;49297;43.210;27.914;2023-04-02T13:24:25;100271.66;;;17.65;47.26
63204;BME280;49297;43.210;27.914;2023-04-02T13:26:59;100275.06;;;17.81;47.22
63204;BME280;49297;43.210;27.914;2023-04-02T13:31:54;100272.28;;;17.96;46.99
63204;BME280;49297;43.210;27.914;2023-04-02T13:34:21;100273.53;;;18.35;46.46
63204;BME280;49297;43.210;27.914;2023-04-02T13:36:47;100268.06;;;18.70;45.23
63204;BME280;49297;43.210;27.914;2023-04-02T13:41:46;100275.44;;;19.09;43.99
63204;BME280;49297;43.210;27.914;2023-04-02T13:44:20;100276.78;;;18.72;44.40
63204;BME280;49297;43.210;27.914;2023-04-02T13:46:48;100276.69;;;18.52;44.91
63204;BME280;49297;43.210;27.914;2023-04-02T13:49:14;100277.13;;;18.62;44.98
63204;BME280;49297;43.210;27.914;2023-04-02T13:51:41;100280.88;;;18.68;44.79
63204;BME280;49297;43.210;27.914;2023-04-02T13:54:19;100279.22;;;18.73;44.45
63204;BME280;49297;43.210;27.914;2023-04-02T13:56:48;100275.16;;;18.84;44.37
63204;BME280;49297;43.210;27.914;2023-04-02T13:59:16;100275.28;;;18.62;44.71
63204;BME280;49297;43.210;27.914;2023-04-02T14:01:42;100274.41;;;18.55;45.09
63204;BME280;49297;43.210;27.914;2023-04-02T14:04:12;100266.59;;;18.60;45.02
63204;BME280;49297;43.210;27.914;2023-04-02T14:06:55;100270.78;;;18.76;45.06
63204;BME280;49297;43.210;27.914;2023-04-02T14:22:31;100265.41;;;18.15;44.93
63204;BME280;49297;43.210;27.914;2023-04-02T14:27:49;100279.28;;;18.32;45.12
63204;BME280;49297;43.210;27.914;2023-04-02T14:30:22;100279.91;;;18.34;45.52
63204;BME280;49297;43.210;27.914;2023-04-02T14:35:34;100277.56;;;18.17;46.22
63204;BME280;49297;43.210;27.914;2023-04-02T14:40:47;100275.00;;;18.02;46.72
63204;BME280;49297;43.210;27.914;2023-04-02T14:43:16;100270.00;;;17.93;46.97
63204;BME280;49297;43.210;27.914;2023-04-02T14:45:50;100277.94;;;17.79;47.19
63204;BME280;49297;43.210;27.914;2023-04-02T14:50:50;100282.09;;;17.60;47.04
63204;BME280;49297;43.210;27.914;2023-04-02T14:53:25;100280.41;;;17.53;46.99
63204;BME280;49297;43.210;27.914;2023-04-02T14:55:53;100283.28;;;17.51;47.08
63204;BME280;49297;43.210;27.914;2023-04-02T15:04:26;100279.19;;;17.34;47.60
63204;BME280;49297;43.210;27.914;2023-04-02T15:06:33;100281.19;;;17.25;47.85
63204;BME280;49297;43.210;27.914;2023-04-02T15:09:01;100271.63;;;17.16;47.85
63204;BME280;49297;43.210;27.914;2023-04-02T15:14:05;100268.00;;;17.02;47.86
63204;BME280;49297;43.210;27.914;2023-04-02T15:16:36;100280.09;;;16.98;47.89
63204;BME280;49297;43.210;27.914;2023-04-02T15:19:07;100276.16;;;16.93;48.06
63204;BME280;49297;43.210;27.914;2023-04-02T15:39:41;100323.81;;;16.75;48.36
63204;BME280;49297;43.210;27.914;2023-04-02T15:44:33;100334.56;;;16.60;49.41
63204;BME280;49297;43.210;27.914;2023-04-02T15:51:58;100331.81;;;16.39;50.31
63204;BME280;49297;43.210;27.914;2023-04-02T15:57:16;100323.59;;;16.25;50.24
63204;BME280;49297;43.210;27.914;2023-04-02T16:00:13;100327.66;;;16.21;50.44
63204;BME280;49297;43.210;27.914;2023-04-02T16:02:39;100337.22;;;16.15;50.71
63204;BME280;49297;43.210;27.914;2023-04-02T16:10:35;100347.06;;;16.00;50.91
63204;BME280;49297;43.210;27.914;2023-04-02T16:13:03;100355.81;;;15.94;50.98
63204;BME280;49297;43.210;27.914;2023-04-02T16:15:37;100344.84;;;15.89;51.20
63204;BME280;49297;43.210;27.914;2023-04-02T16:18:11;100343.56;;;15.85;51.48
63204;BME280;49297;43.210;27.914;2023-04-02T16:20:45;100344.91;;;15.80;51.53
63204;BME280;49297;43.210;27.914;2023-04-02T16:23:21;100349.94;;;15.75;51.68
63204;BME280;49297;43.210;27.914;2023-04-02T16:34:02;100358.78;;;15.53;52.71
63204;BME280;49297;43.210;27.914;2023-04-02T16:38:58;100365.38;;;15.42;52.76
63204;BME280;49297;43.210;27.914;2023-04-02T16:44:04;100367.47;;;15.23;53.84
63204;BME280;49297;43.210;27.914;2023-04-02T16:46:43;100372.59;;;15.02;55.46
63204;BME280;49297;43.210;27.914;2023-04-02T16:51:44;100381.97;;;14.50;57.76
63204;BME280;49297;43.210;27.914;2023-04-02T17:06:54;100399.53;;;13.70;59.92
63204;BME280;49297;43.210;27.914;2023-04-02T17:09:27;100409.16;;;13.63;60.39
63204;BME280;49297;43.210;27.914;2023-04-02T17:12:04;100401.03;;;13.57;60.71
63204;BME280;49297;43.210;27.914;2023-04-02T17:14:55;100412.63;;;13.47;61.11
63204;BME280;49297;43.210;27.914;2023-04-02T17:17:22;100414.28;;;13.40;61.17
63204;BME280;49297;43.210;27.914;2023-04-02T17:19:49;100422.75;;;13.36;61.62
63204;BME280;49297;43.210;27.914;2023-04-02T17:22:19;100431.88;;;13.33;61.78
63204;BME280;49297;43.210;27.914;2023-04-02T17:24:46;100429.84;;;13.27;61.97
63204;BME280;49297;43.210;27.914;2023-04-02T17:30:03;100434.47;;;13.17;62.59
63204;BME280;49297;43.210;27.914;2023-04-02T17:32:31;100442.09;;;13.11;62.75
63204;BME280;49297;43.210;27.914;2023-04-02T17:35:41;100460.00;;;13.01;62.98
63204;BME280;49297;43.210;27.914;2023-04-02T17:37:49;100451.66;;;12.96;63.25
63204;BME280;49297;43.210;27.914;2023-04-02T17:43:00;100472.06;;;12.87;63.59
63204;BME280;49297;43.210;27.914;2023-04-02T17:45:46;100465.38;;;12.83;63.88
63204;BME280;49297;43.210;27.914;2023-04-02T17:53:36;100479.44;;;12.75;64.24
63204;BME280;49297;43.210;27.914;2023-04-02T17:56:10;100483.13;;;12.74;64.67
63204;BME280;49297;43.210;27.914;2023-04-02T18:07:03;100491.19;;;12.65;65.12
63204;BME280;49297;43.210;27.914;2023-04-02T18:12:22;100494.47;;;12.59;65.26